Time;durP1;ratioP1;P1;durP2;ratioP2;P2;SDS_P1;SDS_P2;PMS_P1;PMS_P2;Temp;Humidity;BMP_temperature;BMP_pressure;BME280_temperature;BME280_humidity;BME280_pressure;Samples;Min_cycle;Max_cycle;Signal;HPM_P1;HPM_P2
2023/07/16 00:02:02;;;;;;;9.93;9.02;;;;;;;24.62;70.94;95104.84;6109431;23;20461;-73
2023/07/16 00:04:49;;;;;;;9.75;8.88;;;;;;;24.62;71.21;95115.28;6099351;23;20171;-73
2023/07/16 00:07:36;;;;;;;11.48;10.00;;;;;;;24.59;70.80;95111.34;6100390;23;20295;-73
2023/07/16 00:10:23;;;;;;;11.13;10.00;;;;;;;24.56;71.22;95112.25;6099614;23;20179;-73
2023/07/16 00:13:10;;;;;;;10.38;9.48;;;;;;;24.55;70.91;95115.47;6109431;23;20167;-73
2023/07/16 00:15:57;;;;;;;10.65;9.65;;;;;;;24.51;71.02;95107.16;6099589;23;20168;-73
2023/07/16 00:18:45;;;;;;;11.23;10.07;;;;;;;24.48;70.85;95111.63;6099531;23;20272;-73
2023/07/16 00:21:31;;;;;;;10.23;9.25;;;;;;;24.45;71.27;95098.41;6099281;23;20296;-73
2023/07/16 00:24:19;;;;;;;10.27;9.40;;;;;;;24.43;71.19;95106.50;6108006;23;20176;-73
2023/07/16 00:27:06;;;;;;;10.32;9.43;;;;;;;24.42;71.16;95102.13;6099630;23;20180;-73
2023/07/16 00:29:52;;;;;;;10.55;9.55;;;;;;;24.40;71.25;95101.78;6099209;23;20244;-73
2023/07/16 00:32:39;;;;;;;11.68;9.85;;;;;;;24.37;71.72;95102.63;6099078;23;20231;-73
2023/07/16 00:35:25;;;;;;;10.45;9.48;;;;;;;24.36;71.57;95103.06;6108988;23;20172;-73
2023/07/16 00:38:10;;;;;;;10.55;9.43;;;;;;;24.33;71.92;95106.75;6099081;23;20199;-73
2023/07/16 00:40:57;;;;;;;11.05;9.95;;;;;;;24.27;71.53;95101.66;6108866;23;20167;-73
2023/07/16 00:43:44;;;;;;;10.77;9.70;;;;;;;24.24;72.09;95096.13;6108961;23;20167;-73
2023/07/16 00:46:30;;;;;;;10.25;9.35;;;;;;;24.22;72.43;95099.41;6098283;23;20248;-73
2023/07/16 00:49:17;;;;;;;11.50;10.43;;;;;;;24.20;72.35;95103.88;6099496;23;20171;-73
2023/07/16 00:52:03;;;;;;;10.55;9.57;;;;;;;24.17;72.43;95101.94;6109220;23;20176;-73
2023/07/16 00:54:50;;;;;;;10.45;9.50;;;;;;;24.15;72.41;95099.56;6100870;23;20255;-73
2023/07/16 00:57:40;;;;;;;10.13;9.23;;;;;;;24.14;72.65;95097.19;6110399;23;20487;-73
2023/07/16 01:00:27;;;;;;;11.05;9.98;;;;;;;24.11;72.42;95100.88;6110884;23;20179;-73
2023/07/16 01:03:15;;;;;;;10.02;9.13;;;;;;;24.05;72.28;95099.84;6110903;23;20175;-73
2023/07/16 01:06:07;;;;;;;12.60;10.20;;;;;;;24.07;72.46;95097.34;6108603;23;20187;-73
2023/07/16 01:08:58;;;;;;;10.25;9.32;;;;;;;24.06;72.43;95092.97;6101003;23;20167;-73
2023/07/16 01:11:46;;;;;;;10.50;9.60;;;;;;;24.04;72.66;95099.03;6101065;23;20610;-73
2023/07/16 01:14:34;;;;;;;10.93;9.93;;;;;;;24.04;72.48;95096.22;6100720;23;20573;-73
2023/07/16 01:17:20;;;;;;;11.10;10.00;;;;;;;24.02;72.50;95095.88;6100911;23;20616;-73
2023/07/16 01:20:11;;;;;;;10.95;9.98;;;;;;;23.97;72.24;95102.81;6100591;23;20573;-73
2023/07/16 01:23:31;;;;;;;10.48;9.57;;;;;;;23.92;72.12;95102.53;6100987;23;20630;-73
2023/07/16 01:26:39;;;;;;;10.68;9.60;;;;;;;23.89;71.97;95100.59;6094655;23;20247;-73
2023/07/16 01:29:34;;;;;;;11.02;10.05;;;;;;;23.87;72.32;95098.25;6100421;23;20221;-73
2023/07/16 01:32:22;;;;;;;10.35;9.35;;;;;;;23.84;72.35;95093.47;6100396;23;20232;-73
2023/07/16 01:35:09;;;;;;;10.75;9.80;;;;;;;23.78;72.21;95098.84;6100954;23;20282;-73
2023/07/16 01:37:55;;;;;;;10.73;9.63;;;;;;;23.78;72.32;95098.84;6100788;23;20263;-73
2023/07/16 01:40:42;;;;;;;11.05;9.95;;;;;;;23.76;72.34;95098.50;6100741;23;20243;-73
2023/07/16 01:43:27;;;;;;;9.55;8.65;;;;;;;23.77;72.47;95097.25;6100759;23;20176;-73
2023/07/16 01:46:18;;;;;;;10.82;9.00;;;;;;;23.81;72.57;95102.00;6100433;23;20180;-73
2023/07/16 01:49:04;;;;;;;10.52;9.52;;;;;;;23.78;72.07;95106.47;6110393;23;20184;-73
2023/07/16 01:51:53;;;;;;;10.38;9.35;;;;;;;23.80;72.00;95111.69;6100231;23;20175;-73
2023/07/16 01:54:38;;;;;;;9.57;8.77;;;;;;;23.77;71.81;95104.91;6100525;23;20184;-73
2023/07/16 01:57:25;;;;;;;9.38;8.50;;;;;;;23.76;72.46;95112.56;6100115;23;20199;-73
2023/07/16 02:00:12;;;;;;;10.80;9.80;;;;;;;23.75;72.33;95108.19;6100460;23;20172;-73
2023/07/16 02:03:00;;;;;;;9.73;8.73;;;;;;;23.74;72.30;95108.59;6109896;23;20211;-73
2023/07/16 02:05:46;;;;;;;9.45;8.65;;;;;;;23.73;72.30;95115.47;6100013;23;20188;-73
2023/07/16 02:08:32;;;;;;;9.60;8.70;;;;;;;23.72;72.57;95109.03;6100478;23;20171;-73
2023/07/16 02:11:18;;;;;;;10.05;9.15;;;;;;;23.70;72.54;95103.03;6110119;23;20167;-73
2023/07/16 02:14:05;;;;;;;10.50;9.60;;;;;;;23.68;72.81;95107.56;6110143;23;20175;-73
2023/07/16 02:16:51;;;;;;;10.57;9.63;;;;;;;23.64;73.03;95103.97;6100339;23;20626;-73
2023/07/16 02:19:42;;;;;;;10.18;9.20;;;;;;;23.59;73.14;95113.72;6100263;23;20520;-73
2023/07/16 02:22:28;;;;;;;10.18;9.27;;;;;;;23.57;72.86;95104.94;6100316;23;20268;-73
2023/07/16 02:25:14;;;;;;;10.48;9.45;;;;;;;23.56;73.27;95106.16;6100001;23;20240;-73
2023/07/16 02:28:00;;;;;;;10.55;9.45;;;;;;;23.47;73.06;95109.56;6107457;23;20195;-73
2023/07/16 02:30:47;;;;;;;10.75;9.75;;;;;;;23.43;73.23;95113.72;6100167;23;20180;-73
2023/07/16 02:33:33;;;;;;;11.82;10.60;;;;;;;23.40;73.23;95117.38;6099885;23;20179;-73
2023/07/16 02:36:21;;;;;;;10.60;9.60;;;;;;;23.39;73.75;95113.00;6109959;23;20167;-73
2023/07/16 02:39:07;;;;;;;10.73;9.90;;;;;;;23.38;73.54;95114.19;6100051;23;20469;-73
2023/07/16 02:41:54;;;;;;;10.55;9.25;;;;;;;23.38;73.42;95112.19;6099792;23;20167;-73
2023/07/16 02:44:43;;;;;;;10.77;9.68;;;;;;;23.37;72.79;95119.03;6099967;23;20285;-73
2023/07/16 02:47:28;;;;;;;9.40;8.45;;;;;;;23.35;72.38;95115.88;6099735;23;20473;-73
2023/07/16 02:50:14;;;;;;;9.73;8.82;;;;;;;23.35;72.37;95115.06;6109868;23;20252;-73
2023/07/16 02:53:02;;;;;;;7.82;6.75;;;;;;;23.37;72.01;95115.44;6109498;23;20216;-73
2023/07/16 02:55:48;;;;;;;8.90;6.78;;;;;;;23.39;70.74;95116.59;6099663;23;20176;-73
2023/07/16 02:58:34;;;;;;;7.05;6.38;;;;;;;23.40;70.06;95112.56;6099926;23;20198;-73
2023/07/16 03:01:20;;;;;;;6.43;5.82;;;;;;;23.40;69.57;95118.19;6109697;23;20271;-73
2023/07/16 03:04:07;;;;;;;6.43;5.82;;;;;;;23.41;69.94;95125.38;6100009;23;20175;-73
2023/07/16 03:06:52;;;;;;;6.75;5.63;;;;;;;23.42;70.20;95124.19;6109434;23;20179;-73
2023/07/16 03:09:40;;;;;;;6.65;5.97;;;;;;;23.42;69.48;95121.38;6109293;23;20219;-73
2023/07/16 03:12:26;;;;;;;6.53;5.70;;;;;;;23.42;70.00;95121.38;6099964;23;20175;-73
2023/07/16 03:15:13;;;;;;;6.50;5.63;;;;;;;23.41;69.72;95122.56;6109653;23;20251;-73
2023/07/16 03:17:59;;;;;;;6.35;5.57;;;;;;;23.41;69.31;95119.75;6109582;23;20239;-73
2023/07/16 03:20:46;;;;;;;7.10;5.72;;;;;;;23.40;69.08;95123.00;6109674;23;20175;-73
2023/07/16 03:23:32;;;;;;;5.95;5.45;;;;;;;23.40;69.66;95126.63;6099559;23;20252;-73
2023/07/16 03:26:20;;;;;;;6.65;5.95;;;;;;;23.41;69.91;95130.22;6109541;23;20174;-73
2023/07/16 03:29:06;;;;;;;6.47;5.93;;;;;;;23.40;70.27;95123.81;6099605;23;20192;-73
2023/07/16 03:31:52;;;;;;;7.45;6.72;;;;;;;23.41;70.34;95133.03;6099180;23;20230;-73
2023/07/16 03:34:38;;;;;;;7.40;6.70;;;;;;;23.40;70.52;95137.09;6109623;23;20251;-73
2023/07/16 03:37:24;;;;;;;7.65;6.95;;;;;;;23.37;70.25;95130.31;6099454;23;20166;-73
2023/07/16 03:40:17;;;;;;;9.10;7.07;;;;;;;23.36;70.64;95142.78;6099698;23;20167;-73
2023/07/16 03:43:09;;;;;;;7.18;6.55;;;;;;;23.38;70.42;95142.34;6099716;23;20167;-73
2023/07/16 03:45:55;;;;;;;6.28;5.68;;;;;;;23.33;70.61;95140.84;6109588;23;20168;-73
2023/07/16 03:48:42;;;;;;;7.20;5.55;;;;;;;23.32;69.21;95141.28;6109427;23;20227;-73
2023/07/16 03:51:28;;;;;;;5.90;5.28;;;;;;;23.34;68.81;95147.25;6099967;23;20265;-73
2023/07/16 03:54:14;;;;;;;6.10;5.50;;;;;;;23.32;69.09;95136.44;6109166;23;20172;-73
2023/07/16 03:57:00;;;;;;;6.00;5.43;;;;;;;23.28;68.85;95144.97;6109417;23;20178;-73
2023/07/16 03:59:48;;;;;;;6.32;5.55;;;;;;;23.30;68.79;95145.31;6109296;23;20208;-73
2023/07/16 04:02:33;;;;;;;6.97;5.90;;;;;;;23.30;69.16;95148.13;6099937;23;20312;-73
2023/07/16 04:05:20;;;;;;;6.30;5.68;;;;;;;23.32;68.95;95149.72;6109072;23;20239;-73
2023/07/16 04:08:06;;;;;;;5.80;5.30;;;;;;;23.32;69.14;95150.53;6102861;23;20188;-73
2023/07/16 04:10:53;;;;;;;6.53;5.50;;;;;;;23.33;68.99;95149.28;6099699;23;20272;-73
2023/07/16 04:13:38;;;;;;;6.43;5.85;;;;;;;23.34;69.11;95150.06;6099556;23;20175;-73
2023/07/16 04:16:26;;;;;;;6.50;5.75;;;;;;;23.34;69.17;95156.50;6099617;23;20255;-73
2023/07/16 04:19:12;;;;;;;6.95;5.70;;;;;;;23.37;69.55;95161.25;6099500;23;20196;-73
2023/07/16 04:22:02;;;;;;;8.18;7.07;;;;;;;23.34;69.94;95159.31;6099591;23;20462;-73
2023/07/16 04:24:48;;;;;;;8.77;7.93;;;;;;;23.32;70.41;95152.53;6099189;23;20184;-73
2023/07/16 04:27:35;;;;;;;9.00;8.10;;;;;;;23.29;71.15;95162.63;6099449;23;20175;-73
2023/07/16 04:30:20;;;;;;;9.80;8.82;;;;;;;23.27;71.55;95163.06;6101448;23;20176;-73
2023/07/16 04:33:09;;;;;;;9.93;8.85;;;;;;;23.26;71.76;95163.50;6100921;23;20220;-73
2023/07/16 04:35:56;;;;;;;9.45;8.55;;;;;;;23.25;72.02;95159.09;6101053;23;20176;-73
2023/07/16 04:38:43;;;;;;;9.77;8.95;;;;;;;23.24;72.09;95165.94;6110982;23;20284;-73
2023/07/16 04:41:28;;;;;;;9.45;8.75;;;;;;;23.22;72.03;95171.22;6101335;23;20179;-73
2023/07/16 04:44:15;;;;;;;9.85;8.90;;;;;;;23.22;72.41;95174.03;6100905;23;20470;-73
2023/07/16 04:47:00;;;;;;;9.98;9.05;;;;;;;23.20;72.59;95170.84;6110624;23;20244;-73
2023/07/16 04:49:48;;;;;;;10.05;8.50;;;;;;;23.20;72.57;95168.84;6101214;23;20247;-73
2023/07/16 04:52:34;;;;;;;10.55;9.15;;;;;;;23.20;72.73;95168.03;6100062;23;20176;-73
2023/07/16 04:55:21;;;;;;;8.88;8.00;;;;;;;23.22;72.99;95172.00;6101110;23;20171;-73
2023/07/16 04:58:07;;;;;;;12.88;8.80;;;;;;;23.23;73.38;95176.41;6100676;23;20175;-73
2023/07/16 05:00:54;;;;;;;9.73;7.90;;;;;;;23.27;72.95;95174.31;6101110;23;20247;-73
2023/07/16 05:03:40;;;;;;;9.02;8.23;;;;;;;23.31;73.07;95168.59;6110865;23;20172;-73
2023/07/16 05:06:31;;;;;;;8.73;7.90;;;;;;;23.34;73.50;95176.19;6101035;23;20231;-73
2023/07/16 05:09:17;;;;;;;10.70;8.10;;;;;;;23.34;73.51;95179.00;6101043;23;20251;-73
2023/07/16 05:12:04;;;;;;;8.65;7.55;;;;;;;23.36;73.40;95172.97;6100948;23;20509;-73
2023/07/16 05:14:50;;;;;;;8.02;7.32;;;;;;;23.39;72.93;95177.72;6101014;23;20179;-73
2023/07/16 05:17:36;;;;;;;6.97;6.38;;;;;;;23.40;72.13;95173.69;6110405;23;20175;-73
2023/07/16 05:20:22;;;;;;;6.45;5.85;;;;;;;23.41;71.07;95178.84;6110707;23;20179;-73
2023/07/16 05:23:11;;;;;;;6.40;5.82;;;;;;;23.46;70.39;95172.75;6100945;23;20596;-73
2023/07/16 05:25:57;;;;;;;6.13;5.63;;;;;;;23.50;70.63;95173.44;6110670;23;20573;-73
2023/07/16 05:28:43;;;;;;;6.55;5.95;;;;;;;23.53;70.58;95178.22;6100495;23;20260;-73
2023/07/16 05:31:29;;;;;;;8.10;6.40;;;;;;;23.57;69.87;95177.31;6100750;23;20218;-73
2023/07/16 05:34:16;;;;;;;6.88;6.28;;;;;;;23.62;69.26;95188.09;6110319;23;20176;-73
2023/07/16 05:37:01;;;;;;;6.55;5.85;;;;;;;23.64;68.53;95180.81;6110281;23;20176;-73
2023/07/16 05:39:52;;;;;;;7.22;6.55;;;;;;;23.67;68.43;95184.78;6100743;23;20214;-73
2023/07/16 05:42:41;;;;;;;7.45;6.57;;;;;;;23.68;67.69;95190.00;6100909;23;20247;-73
2023/07/16 05:45:27;;;;;;;7.65;6.53;;;;;;;23.71;67.29;95191.13;6110193;23;20180;-73
2023/07/16 05:48:16;;;;;;;7.18;6.57;;;;;;;23.72;68.31;95189.91;6110511;23;20227;-73
2023/07/16 05:51:02;;;;;;;7.13;6.10;;;;;;;23.73;68.59;95197.91;6110445;23;20192;-73
2023/07/16 05:53:50;;;;;;;6.35;5.75;;;;;;;23.76;67.49;95194.22;6100674;23;20248;-73
2023/07/16 05:56:38;;;;;;;6.72;6.10;;;;;;;23.76;67.97;95199.06;6110020;23;20227;-73
2023/07/16 05:59:24;;;;;;;7.22;6.53;;;;;;;23.78;68.32;95197.41;6100134;23;20620;-73
2023/07/16 06:02:13;;;;;;;7.30;6.00;;;;;;;23.82;68.55;95191.72;6109965;23;20187;-73
2023/07/16 06:04:59;;;;;;;6.43;5.85;;;;;;;23.86;68.02;95194.44;6100495;23;20256;-73
2023/07/16 06:07:48;;;;;;;6.53;5.80;;;;;;;23.92;66.88;95203.94;6110316;23;20216;-73
2023/07/16 06:10:34;;;;;;;7.18;6.00;;;;;;;23.97;66.80;95203.44;6110296;23;20251;-73
2023/07/16 06:13:23;;;;;;;7.07;6.38;;;;;;;23.97;66.89;95190.16;6100115;23;20176;-73
2023/07/16 06:16:09;;;;;;;6.57;6.00;;;;;;;23.99;67.42;95204.56;6110225;23;20179;-73
2023/07/16 06:18:56;;;;;;;6.50;6.00;;;;;;;24.06;66.89;95205.66;6100383;23;20199;-73
2023/07/16 06:21:42;;;;;;;6.30;5.70;;;;;;;24.08;66.62;95209.63;6100337;23;20171;-73
2023/07/16 06:24:29;;;;;;;7.22;6.57;;;;;;;24.11;66.67;95207.94;6110188;23;20176;-73
2023/07/16 06:27:15;;;;;;;7.45;6.47;;;;;;;24.13;66.32;95202.66;6100338;23;20172;-73
2023/07/16 06:30:03;;;;;;;7.82;7.22;;;;;;;24.14;65.94;95202.22;6100230;23;20187;-73
2023/07/16 06:32:48;;;;;;;6.82;6.22;;;;;;;24.17;66.11;95203.38;6099257;23;20211;-73
2023/07/16 06:35:35;;;;;;;8.07;6.57;;;;;;;24.17;66.80;95192.91;6099925;23;20261;-73
2023/07/16 06:38:21;;;;;;;7.30;6.60;;;;;;;24.20;67.05;95194.03;6099736;23;20174;-74
2023/07/16 06:41:07;;;;;;;7.97;7.18;;;;;;;24.24;66.71;95189.13;6109944;23;20179;-73
2023/07/16 06:43:54;;;;;;;7.22;6.63;;;;;;;24.22;67.02;95189.56;6099864;23;20220;-73
2023/07/16 06:46:45;;;;;;;7.63;6.78;;;;;;;24.24;67.06;95191.94;6100086;23;20175;-73
2023/07/16 06:49:31;;;;;;;7.47;6.75;;;;;;;24.28;66.85;95189.81;6099745;23;20243;-73
2023/07/16 06:52:21;;;;;;;9.00;6.30;;;;;;;24.33;66.48;95188.50;6099813;23;20167;-73
2023/07/16 06:55:07;;;;;;;7.38;6.68;;;;;;;24.37;66.02;95189.22;6103187;23;20187;-73
2023/07/16 06:57:54;;;;;;;7.38;6.65;;;;;;;24.41;66.18;95192.78;6099637;23;20195;-73
2023/07/16 07:00:40;;;;;;;7.68;7.07;;;;;;;24.44;65.92;95191.91;6109314;23;20195;-73
2023/07/16 07:03:28;;;;;;;8.05;7.22;;;;;;;24.44;66.01;95184.22;6099941;23;20200;-73
2023/07/16 07:06:14;;;;;;;7.68;7.00;;;;;;;24.47;65.95;95189.00;6099924;23;20171;-73
2023/07/16 07:09:03;;;;;;;7.75;6.72;;;;;;;24.51;65.68;95186.09;6099973;23;20178;-73
2023/07/16 07:11:49;;;;;;;8.38;7.68;;;;;;;24.55;65.55;95186.78;6099889;23;20271;-73
2023/07/16 07:14:35;;;;;;;9.30;8.15;;;;;;;24.60;65.61;95188.28;6109276;23;20179;-73
2023/07/16 07:17:21;;;;;;;8.57;7.75;;;;;;;24.62;65.37;95188.59;6109633;23;20172;-73
2023/07/16 07:20:11;;;;;;;8.50;7.70;;;;;;;24.68;65.71;95184.03;6099766;23;20195;-73
2023/07/16 07:22:57;;;;;;;8.38;7.63;;;;;;;24.71;65.77;95181.13;6109349;23;20219;-73
2023/07/16 07:25:43;;;;;;;8.77;8.07;;;;;;;24.77;65.65;95186.25;6109604;23;20168;-73
2023/07/16 07:28:30;;;;;;;9.00;8.20;;;;;;;24.81;65.39;95184.91;6099776;23;20255;-73
2023/07/16 07:31:16;;;;;;;8.90;7.32;;;;;;;24.84;65.83;95184.03;6099535;23;20215;-73
2023/07/16 07:34:02;;;;;;;9.20;8.35;;;;;;;24.87;65.96;95176.69;6109523;23;20179;-73
2023/07/16 07:36:50;;;;;;;9.52;8.50;;;;;;;24.92;65.15;95185.41;6109544;23;20178;-73
2023/07/16 07:39:37;;;;;;;9.57;8.68;;;;;;;25.00;64.78;95180.38;6109125;23;20247;-73
2023/07/16 07:42:24;;;;;;;9.50;8.68;;;;;;;25.05;64.65;95184.66;6099763;23;20175;-73
2023/07/16 07:45:11;;;;;;;9.15;8.25;;;;;;;25.11;65.17;95180.88;6099721;23;20582;-73
2023/07/16 07:47:57;;;;;;;11.27;8.10;;;;;;;25.13;65.05;95180.47;6109558;23;20168;-73
2023/07/16 07:50:44;;;;;;;8.63;7.90;;;;;;;25.17;65.47;95181.16;6099748;23;20170;-73
2023/07/16 07:53:33;;;;;;;8.45;7.60;;;;;;;25.20;64.71;95171.78;6099328;23;20518;-73
2023/07/16 07:56:19;;;;;;;9.10;8.20;;;;;;;25.24;64.31;95169.66;6099407;23;20255;-73
2023/07/16 07:59:05;;;;;;;8.68;7.90;;;;;;;25.31;64.83;95171.47;6099597;23;20170;-73
2023/07/16 08:01:51;;;;;;;9.68;8.25;;;;;;;25.38;64.49;95180.56;6109055;23;20184;-73
2023/07/16 08:04:37;;;;;;;9.75;8.80;;;;;;;25.46;63.92;95181.13;6111288;23;20180;-73
2023/07/16 08:07:23;;;;;;;10.00;9.13;;;;;;;25.52;64.22;95175.72;6101680;23;20273;-73
2023/07/16 08:10:11;;;;;;;8.95;8.15;;;;;;;25.56;64.00;95176.41;6111398;23;20184;-73
2023/07/16 08:12:57;;;;;;;9.48;8.48;;;;;;;25.58;63.48;95174.72;6101608;23;20241;-73
2023/07/16 08:15:42;;;;;;;10.20;9.25;;;;;;;25.57;62.68;95178.00;6109866;23;20208;-73
2023/07/16 08:18:28;;;;;;;11.25;10.25;;;;;;;25.58;62.69;95173.94;6111027;23;20589;-73
2023/07/16 08:21:19;;;;;;;10.65;9.55;;;;;;;25.66;63.80;95172.47;6110868;23;20191;-73
2023/07/16 08:24:06;;;;;;;10.63;9.63;;;;;;;25.76;63.69;95167.75;6101209;23;20253;-73
2023/07/16 08:26:53;;;;;;;10.02;9.15;;;;;;;25.85;62.63;95168.69;6109185;23;20191;-73
2023/07/16 08:29:39;;;;;;;9.75;8.90;;;;;;;25.94;62.76;95176.50;6101367;23;20168;-73
2023/07/16 08:32:28;;;;;;;10.27;9.27;;;;;;;26.06;64.98;95175.72;6110836;23;20219;-73
2023/07/16 08:35:16;;;;;;;12.30;9.73;;;;;;;26.22;61.83;95186.13;6101051;23;20191;-73
2023/07/16 08:38:03;;;;;;;10.45;9.45;;;;;;;26.27;62.09;95174.25;6101026;23;20180;-73
2023/07/16 08:40:49;;;;;;;10.73;9.82;;;;;;;26.40;61.32;95179.91;6101245;23;20199;-73
2023/07/16 08:43:37;;;;;;;10.90;9.57;;;;;;;26.53;59.80;95180.69;6111058;23;20171;-73
2023/07/16 08:46:23;;;;;;;10.40;9.50;;;;;;;26.49;60.25;95177.19;6101340;23;20255;-73
2023/07/16 08:49:10;;;;;;;12.38;9.57;;;;;;;26.55;62.09;95172.56;6101032;23;20257;-73
2023/07/16 08:51:56;;;;;;;9.27;8.35;;;;;;;26.63;59.94;95164.63;6101429;23;20168;-73
2023/07/16 08:54:43;;;;;;;8.27;7.57;;;;;;;26.80;61.46;95166.06;6110981;23;20176;-73
2023/07/16 08:57:30;;;;;;;9.18;8.32;;;;;;;27.00;61.34;95167.78;6101284;23;20215;-73
2023/07/16 09:00:18;;;;;;;9.73;8.70;;;;;;;27.07;59.77;95167.53;6110505;23;20288;-73
2023/07/16 09:03:04;;;;;;;9.05;8.35;;;;;;;27.14;61.21;95158.81;6101203;23;20573;-73
2023/07/16 09:05:51;;;;;;;12.75;9.80;;;;;;;27.31;58.90;95159.44;6110655;23;20179;-73
2023/07/16 09:08:37;;;;;;;10.50;9.50;;;;;;;27.46;58.14;95165.38;6101207;23;20200;-73
2023/07/16 09:11:23;;;;;;;10.70;9.60;;;;;;;27.48;56.94;95157.19;6110740;23;20251;-73
2023/07/16 09:14:09;;;;;;;10.60;9.60;;;;;;;27.50;59.49;95163.97;6110487;23;20175;-73
2023/07/16 09:16:59;;;;;;;10.50;9.40;;;;;;;27.63;56.82;95163.88;6110447;23;20172;-73
2023/07/16 09:19:46;;;;;;;10.10;9.07;;;;;;;27.70;57.45;95157.16;6110674;23;20296;-73
2023/07/16 09:22:32;;;;;;;10.23;9.23;;;;;;;27.80;56.71;95148.28;6110751;23;20219;-73
2023/07/16 09:25:18;;;;;;;10.85;9.52;;;;;;;27.90;58.72;95148.34;6110704;23;20196;-73
2023/07/16 09:28:04;;;;;;;10.65;9.55;;;;;;;28.04;56.90;95153.47;6110313;23;20521;-73
2023/07/16 09:30:51;;;;;;;10.07;9.18;;;;;;;28.16;56.63;95146.09;6110613;23;20224;-73
2023/07/16 09:33:37;;;;;;;10.73;9.70;;;;;;;28.25;56.17;95146.13;6105723;23;20199;-73
2023/07/16 09:36:26;;;;;;;10.60;9.68;;;;;;;28.34;56.10;95143.31;6110295;23;20172;-73
2023/07/16 09:39:11;;;;;;;10.63;9.25;;;;;;;28.40;55.42;95149.22;6100806;23;20467;-73
2023/07/16 09:41:57;;;;;;;11.05;9.95;;;;;;;28.53;55.83;95152.69;6110610;23;20167;-73
2023/07/16 09:44:48;;;;;;;11.60;10.48;;;;;;;28.67;54.54;95152.09;6100746;23;20571;-73
2023/07/16 09:47:33;;;;;;;11.02;9.90;;;;;;;28.79;54.97;95144.72;6110463;23;20184;-73
2023/07/16 09:50:24;;;;;;;10.80;9.80;;;;;;;28.81;54.76;95135.75;6110410;23;20219;-73
2023/07/16 09:53:10;;;;;;;11.65;10.48;;;;;;;28.86;57.52;95126.59;6100338;23;20220;-73
2023/07/16 09:55:56;;;;;;;10.25;9.30;;;;;;;28.89;55.47;95131.31;6110392;23;20577;-73
2023/07/16 09:58:42;;;;;;;13.48;12.15;;;;;;;28.89;54.44;95137.00;6100545;23;20196;-73
2023/07/16 10:01:29;;;;;;;16.83;15.02;;;;;;;28.98;55.42;95132.16;6100438;23;20199;-73
2023/07/16 10:04:16;;;;;;;11.20;10.20;;;;;;;29.18;54.13;95126.00;6110005;23;20223;-73
2023/07/16 10:07:04;;;;;;;11.68;10.38;;;;;;;29.21;52.74;95125.06;6100579;23;20230;-73
2023/07/16 10:09:54;;;;;;;11.05;9.77;;;;;;;29.23;54.13;95119.69;6109909;23;20167;-73
2023/07/16 10:12:39;;;;;;;11.48;10.27;;;;;;;29.31;52.34;95119.38;6100498;23;20220;-73
2023/07/16 10:15:28;;;;;;;10.77;9.73;;;;;;;29.35;51.82;95117.94;6100334;23;20248;-73
2023/07/16 10:18:24;;;;;;;11.70;10.57;;;;;;;29.45;53.73;95111.00;6100010;23;20168;-73
2023/07/16 10:21:10;;;;;;;11.63;10.65;;;;;;;29.56;54.96;95116.19;6099968;23;20199;-73
2023/07/16 10:24:00;;;;;;;12.00;10.70;;;;;;;29.65;52.60;95113.34;6110079;23;20231;-73
2023/07/16 10:26:46;;;;;;;11.77;10.57;;;;;;;29.77;53.18;95105.09;6099594;23;20171;-73
2023/07/16 10:29:31;;;;;;;10.13;9.23;;;;;;;29.88;52.05;95109.00;6099914;23;20176;-73
2023/07/16 10:32:16;;;;;;;11.73;10.52;;;;;;;29.97;50.69;95105.34;6109625;23;20250;-73
2023/07/16 10:35:02;;;;;;;11.98;10.45;;;;;;;29.95;49.04;95105.81;6099885;23;20167;-74
2023/07/16 10:37:48;;;;;;;11.35;10.15;;;;;;;29.96;49.69;95101.72;6100252;23;20251;-73
2023/07/16 10:40:41;;;;;;;12.10;10.85;;;;;;;29.99;50.73;95105.66;6109935;23;20195;-73
2023/07/16 10:43:26;;;;;;;11.07;9.95;;;;;;;30.06;49.77;95101.66;6100145;23;20171;-73
2023/07/16 10:46:12;;;;;;;11.38;10.27;;;;;;;30.21;50.68;95096.88;6099856;23;20577;-73
2023/07/16 10:48:57;;;;;;;11.55;10.55;;;;;;;30.25;50.67;95102.41;6100103;23;20298;-73
2023/07/16 10:51:43;;;;;;;11.57;10.48;;;;;;;30.36;50.83;95103.47;6109426;23;20179;-74
2023/07/16 10:54:28;;;;;;;13.10;10.85;;;;;;;30.40;50.06;95091.91;6109864;23;20569;-74
2023/07/16 10:57:16;;;;;;;12.05;10.85;;;;;;;30.48;50.31;95090.28;6099986;23;20175;-73
2023/07/16 11:00:01;;;;;;;11.50;10.35;;;;;;;30.52;49.55;95088.03;6109703;23;20612;-73
2023/07/16 11:02:47;;;;;;;13.73;11.45;;;;;;;30.63;49.18;95087.50;6099889;23;20232;-73
2023/07/16 11:05:32;;;;;;;11.57;10.48;;;;;;;30.68;48.37;95087.63;6099931;23;20175;-73
2023/07/16 11:08:24;;;;;;;12.02;10.82;;;;;;;30.79;48.62;95089.13;6099974;23;20457;-73
2023/07/16 11:11:09;;;;;;;11.85;10.85;;;;;;;30.84;49.83;95088.50;6099840;23;20175;-73
2023/07/16 11:13:56;;;;;;;11.80;10.57;;;;;;;30.86;47.82;95088.78;6099583;23;20247;-73
2023/07/16 11:16:41;;;;;;;11.88;10.68;;;;;;;30.87;46.27;95082.59;6109357;23;20224;-74
2023/07/16 11:19:27;;;;;;;11.82;10.60;;;;;;;30.84;45.59;95074.25;6099516;23;20186;-73
2023/07/16 11:22:12;;;;;;;12.07;10.90;;;;;;;30.86;46.01;95071.69;6109274;23;20176;-73
2023/07/16 11:24:58;;;;;;;11.13;9.95;;;;;;;30.89;46.73;95068.66;6099899;23;20175;-73
2023/07/16 11:27:44;;;;;;;10.90;9.90;;;;;;;30.95;44.56;95071.63;6099796;23;20176;-74
2023/07/16 11:30:32;;;;;;;11.60;10.43;;;;;;;31.04;46.96;95068.69;6099805;23;20175;-74
2023/07/16 11:33:18;;;;;;;10.57;9.57;;;;;;;31.09;45.61;95067.25;6105834;23;20594;-74
2023/07/16 11:36:05;;;;;;;11.18;9.98;;;;;;;31.08;44.31;95059.97;6099477;23;20179;-73
2023/07/16 11:38:51;;;;;;;11.60;10.25;;;;;;;31.17;46.41;95063.53;6109534;23;20178;-73
2023/07/16 11:41:38;;;;;;;11.63;10.45;;;;;;;31.33;43.97;95061.50;6109130;23;20271;-73
2023/07/16 11:44:23;;;;;;;11.45;10.45;;;;;;;31.38;45.87;95060.84;6109511;23;20762;-73
2023/07/16 11:47:10;;;;;;;13.20;10.10;;;;;;;31.47;44.16;95054.25;6109139;23;20179;-74
2023/07/16 11:49:56;;;;;;;10.32;9.30;;;;;;;31.48;42.70;95058.66;6099742;23;20255;-73
2023/07/16 11:52:41;;;;;;;10.23;9.18;;;;;;;31.42;42.11;95055.72;6109384;23;20171;-74
2023/07/16 11:55:27;;;;;;;10.35;9.40;;;;;;;31.43;44.23;95053.66;6109457;23;20180;-73
2023/07/16 11:58:12;;;;;;;11.98;10.68;;;;;;;31.56;45.42;95054.94;6099702;23;20254;-74
2023/07/16 12:00:58;;;;;;;11.48;10.48;;;;;;;31.68;44.83;95049.44;6109264;23;20195;-74
2023/07/16 12:03:45;;;;;;;11.43;10.25;;;;;;;31.81;43.88;95042.13;6099605;23;20170;-74
2023/07/16 12:06:32;;;;;;;11.63;9.90;;;;;;;31.80;44.57;95040.53;6099676;23;20175;-73
2023/07/16 12:09:17;;;;;;;12.52;10.88;;;;;;;31.81;44.56;95038.47;6109472;23;20175;-74
2023/07/16 12:12:04;;;;;;;11.77;10.57;;;;;;;31.90;45.08;95040.47;6099608;23;20171;-74
2023/07/16 12:14:52;;;;;;;12.68;11.32;;;;;;;32.07;44.63;95038.69;6109384;23;20167;-74
2023/07/16 12:17:37;;;;;;;11.60;10.50;;;;;;;32.09;44.34;95041.81;6109467;23;20231;-73
2023/07/16 12:20:27;;;;;;;12.07;10.60;;;;;;;32.05;43.09;95038.38;6099758;23;20228;-73
2023/07/16 12:23:12;;;;;;;24.20;21.95;;;;;;;32.00;42.97;95028.47;6099320;23;20180;-73
2023/07/16 12:25:59;;;;;;;12.88;11.57;;;;;;;32.06;42.70;95028.53;6099378;23;20196;-74
2023/07/16 12:28:44;;;;;;;11.10;9.95;;;;;;;32.10;40.47;95021.34;6109340;23;20240;-73
2023/07/16 12:31:32;;;;;;;9.50;8.55;;;;;;;32.08;40.46;95032.47;6099218;23;20271;-73
2023/07/16 12:34:18;;;;;;;11.00;10.10;;;;;;;32.22;41.69;95022.31;6098850;23;20183;-74
2023/07/16 12:37:07;;;;;;;11.13;9.93;;;;;;;32.22;40.49;95025.16;6099253;23;20573;-74
2023/07/16 12:39:54;;;;;;;11.57;9.75;;;;;;;32.15;40.82;95022.72;6108980;23;20227;-74
2023/07/16 12:42:40;;;;;;;10.63;9.73;;;;;;;32.18;41.43;95021.72;6099495;23;20207;-73
2023/07/16 12:45:26;;;;;;;10.35;9.30;;;;;;;32.31;41.11;95019.31;6109206;23;20171;-74
2023/07/16 12:48:13;;;;;;;10.23;9.30;;;;;;;32.36;39.69;95023.53;6108907;23;20172;-74
2023/07/16 12:51:02;;;;;;;9.52;8.68;;;;;;;32.33;39.54;95019.59;6110728;23;20224;-74
2023/07/16 12:53:50;;;;;;;10.23;9.23;;;;;;;32.35;38.87;95019.91;6110669;23;20231;-74
2023/07/16 12:56:35;;;;;;;9.73;8.85;;;;;;;32.35;39.14;95013.38;6101094;23;20191;-74
2023/07/16 12:59:24;;;;;;;9.95;8.95;;;;;;;32.32;39.12;95015.19;6101238;23;20183;-74